Time;durP1;ratioP1;P1;durP2;ratioP2;P2;SDS_P1;SDS_P2;PMS_P1;PMS_P2;Temp;Humidity;BMP_temperature;BMP_pressure;BME280_temperature;BME280_humidity;BME280_pressure;Samples;Min_cycle;Max_cycle;Signal;HPM_P1;HPM_P2
2021/01/10 00:00:42;;;;;;;22.50;13.13;;;0.10;99.90;;;-146.47;100.00;66290.13;4940011;29;20258;-77
2021/01/10 00:03:27;;;;;;;24.70;14.37;;;0.10;99.90;;;-146.47;100.00;66290.13;4953476;29;20650;-77
2021/01/10 00:06:12;;;;;;;24.97;13.80;;;0.00;99.90;;;-146.47;100.00;66290.13;4950556;29;20218;-76
2021/01/10 00:08:57;;;;;;;21.33;13.17;;;0.00;99.90;;;-146.47;100.00;66290.13;4956620;29;20230;-78
2021/01/10 00:11:44;;;;;;;19.93;13.37;;;0.00;99.90;;;-146.47;100.00;66290.13;4958737;28;20756;-77
2021/01/10 00:14:30;;;;;;;27.10;16.40;;;0.00;99.90;;;-146.47;100.00;66290.13;4957605;29;20246;-77
2021/01/10 00:17:15;;;;;;;29.50;16.20;;;-0.10;99.90;;;-146.47;100.00;66290.13;4952880;29;20211;-76
2021/01/10 00:20:00;;;;;;;28.80;17.43;;;-0.10;99.90;;;-146.47;100.00;66290.13;4957516;29;20602;-76
2021/01/10 00:22:50;;;;;;;23.53;16.20;;;0.00;99.90;;;-146.47;100.00;66290.13;4956094;29;20258;-74
2021/01/10 00:25:35;;;;;;;29.30;16.97;;;0.00;99.90;;;-146.47;100.00;66290.13;4944425;29;20287;-77
2021/01/10 00:28:20;;;;;;;26.13;16.37;;;0.10;99.90;;;-146.47;100.00;66290.13;4962134;29;20210;-77
2021/01/10 00:31:06;;;;;;;28.57;16.07;;;0.10;99.90;;;-146.47;100.00;66290.13;4947940;29;20206;-78
2021/01/10 00:33:51;;;;;;;31.87;16.00;;;0.10;99.90;;;-146.47;100.00;66290.13;4952376;29;20594;-76
2021/01/10 00:36:37;;;;;;;28.97;16.13;;;0.10;99.90;;;-146.47;100.00;66290.13;4946329;29;20233;-76
2021/01/10 00:39:22;;;;;;;27.23;16.10;;;0.10;99.90;;;-146.47;100.00;66290.13;4963030;29;20230;-75
2021/01/10 00:42:09;;;;;;;27.13;14.80;;;0.10;99.90;;;-146.47;100.00;66290.13;4948566;29;20218;-76
2021/01/10 00:44:54;;;;;;;25.10;15.40;;;0.10;99.90;;;-146.47;100.00;66290.13;4960036;29;20266;-77
2021/01/10 00:47:41;;;;;;;22.97;14.77;;;0.10;99.90;;;-146.47;100.00;66290.13;4953892;29;20269;-77
2021/01/10 00:50:26;;;;;;;22.10;14.40;;;0.10;99.90;;;-146.47;100.00;66290.13;4956400;29;20347;-76
2021/01/10 00:53:11;;;;;;;20.83;13.67;;;0.10;99.90;;;-146.47;100.00;66290.13;4942438;29;20252;-77
2021/01/10 00:55:57;;;;;;;31.17;15.00;;;0.10;99.90;;;-146.47;100.00;66290.13;4953108;29;20673;-76
2021/01/10 00:58:42;;;;;;;23.93;14.30;;;0.10;99.90;;;-146.47;100.00;66290.13;4945765;29;20683;-77
2021/01/10 01:01:27;;;;;;;29.07;15.87;;;0.10;99.90;;;-146.47;100.00;66290.13;4961681;29;20242;-77
2021/01/10 01:04:14;;;;;;;26.47;17.67;;;0.20;99.90;;;-146.47;100.00;66290.13;4949994;29;20270;-77
2021/01/10 01:06:59;;;;;;;31.03;16.77;;;0.20;99.90;;;-146.47;100.00;66290.13;4954817;29;20219;-77
2021/01/10 01:09:44;;;;;;;27.57;16.87;;;0.20;99.90;;;-146.47;100.00;66290.13;4950453;29;20289;-76
2021/01/10 01:12:29;;;;;;;24.63;15.93;;;0.20;99.90;;;-146.47;100.00;66290.13;4962041;29;20210;-78
2021/01/10 01:15:15;;;;;;;33.17;18.50;;;0.30;99.90;;;-146.47;100.00;66290.13;4943309;29;20623;-77
2021/01/10 01:18:00;;;;;;;33.27;18.40;;;0.20;99.90;;;-146.47;100.00;66290.13;4961788;29;20297;-76
2021/01/10 01:20:46;;;;;;;29.17;19.57;;;0.10;99.90;;;-146.47;100.00;66290.13;4956524;29;20253;-75
2021/01/10 01:23:32;;;;;;;28.33;17.73;;;0.20;99.90;;;-146.47;100.00;66290.13;4946919;29;20222;-77
2021/01/10 01:26:19;;;;;;;24.80;17.17;;;0.30;99.90;;;-146.47;100.00;66290.13;4946059;29;20218;-76
2021/01/10 01:29:04;;;;;;;31.87;17.37;;;0.20;99.90;;;-146.47;100.00;66290.13;4962327;29;20246;-77
2021/01/10 01:31:49;;;;;;;29.53;16.43;;;0.30;99.90;;;-146.47;100.00;66290.13;4962981;29;20250;-78
2021/01/10 01:34:34;;;;;;;24.20;15.20;;;0.30;99.90;;;-146.47;100.00;66290.13;4952868;29;20233;-78
2021/01/10 01:37:20;;;;;;;28.43;15.60;;;0.30;99.90;;;-146.47;100.00;66290.13;4943143;29;20214;-78
2021/01/10 01:40:08;;;;;;;28.47;16.40;;;0.30;99.90;;;-146.47;100.00;66290.13;4942835;29;20231;-77
2021/01/10 01:42:53;;;;;;;22.00;13.80;;;0.30;99.90;;;-146.47;100.00;66290.13;4956840;29;20214;-77
2021/01/10 01:45:38;;;;;;;31.70;13.93;;;0.30;99.90;;;-146.47;100.00;66290.13;4948465;29;20683;-77
2021/01/10 01:48:23;;;;;;;23.63;14.47;;;0.30;99.90;;;-146.47;100.00;66290.13;4961434;29;20246;-77
2021/01/10 01:51:09;;;;;;;29.97;14.43;;;0.30;99.90;;;-146.47;100.00;66290.13;4962304;29;20217;-76
2021/01/10 01:53:55;;;;;;;24.97;14.27;;;0.30;99.90;;;-146.47;100.00;66290.13;4945917;29;20238;-78
2021/01/10 01:56:40;;;;;;;25.43;13.53;;;0.30;99.90;;;-146.47;100.00;66290.13;4957233;29;20242;-77
2021/01/10 01:59:25;;;;;;;23.73;14.43;;;0.30;99.90;;;-146.47;100.00;66290.13;4956640;29;20223;-77
2021/01/10 02:02:10;;;;;;;27.00;14.40;;;0.30;99.90;;;-146.47;100.00;66290.13;4955226;29;20256;-77
2021/01/10 02:05:05;;;;;;;31.80;15.33;;;0.30;99.90;;;-146.47;100.00;66290.13;4953290;29;20235;-76
2021/01/10 02:07:58;;;;;;;23.47;12.33;;;0.30;99.90;;;-146.47;100.00;66290.13;4951351;29;20226;-77
2021/01/10 02:10:47;;;;;;;29.40;16.17;;;0.30;99.90;;;-146.47;100.00;66290.13;4947872;29;20262;-76
2021/01/10 02:13:35;;;;;;;28.93;16.80;;;0.30;99.90;;;-146.47;100.00;66290.13;4945146;29;20315;-77
2021/01/10 02:16:21;;;;;;;26.27;15.17;;;0.30;99.90;;;-146.47;100.00;66290.13;4948149;29;20210;-77
2021/01/10 02:19:15;;;;;;;27.77;15.57;;;0.30;99.90;;;-146.47;100.00;66290.13;4960856;29;20277;-76
2021/01/10 02:22:05;;;;;;;26.53;15.27;;;0.40;99.90;;;-146.47;100.00;66290.13;4960095;29;20275;-77
2021/01/10 02:24:51;;;;;;;23.30;15.33;;;0.40;99.90;;;-146.47;100.00;66290.13;4955244;29;20221;-76
2021/01/10 02:27:37;;;;;;;29.10;15.80;;;0.40;99.90;;;-146.47;100.00;66290.13;4951693;29;20202;-78
2021/01/10 02:30:23;;;;;;;25.73;17.63;;;0.40;99.90;;;-146.47;100.00;66290.13;4959108;29;20229;-77
2021/01/10 02:33:18;;;;;;;26.50;16.83;;;0.40;99.90;;;-146.47;100.00;66290.13;4965200;29;20261;-77
2021/01/10 02:36:10;;;;;;;29.37;18.53;;;0.40;99.90;;;-146.47;100.00;66290.13;4948513;29;20218;-78
2021/01/10 02:39:04;;;;;;;37.73;18.93;;;0.50;99.90;;;-146.47;100.00;66290.13;4950397;29;20784;-77
2021/01/10 02:41:59;;;;;;;26.57;16.73;;;0.50;99.90;;;-146.47;100.00;66290.13;4961142;29;20213;-75
2021/01/10 02:44:57;;;;;;;31.00;17.63;;;0.50;99.90;;;-146.47;100.00;66290.13;4942716;29;20262;-77
2021/01/10 02:47:42;;;;;;;31.53;18.87;;;0.60;99.90;;;-146.47;100.00;66290.13;4952071;29;20199;-77
2021/01/10 02:50:29;;;;;;;31.47;17.87;;;0.60;99.90;;;-146.47;100.00;66290.13;4958348;29;20326;-77
2021/01/10 02:53:15;;;;;;;28.43;17.93;;;0.70;99.90;;;-146.47;100.00;66290.13;4950583;29;20229;-77
2021/01/10 02:56:00;;;;;;;28.43;18.07;;;0.70;99.90;;;-146.47;100.00;66290.13;4952545;29;20710;-77
2021/01/10 02:58:51;;;;;;;26.77;17.17;;;0.70;99.90;;;-146.47;100.00;66290.13;4956692;29;20214;-77
2021/01/10 03:01:38;;;;;;;32.37;17.23;;;0.70;99.90;;;-146.47;100.00;66290.13;4947534;29;20199;-77
2021/01/10 03:04:25;;;;;;;29.87;17.23;;;0.70;99.90;;;-146.47;100.00;66290.13;4949119;29;20215;-76
2021/01/10 03:07:10;;;;;;;24.20;15.53;;;0.70;99.90;;;-146.47;100.00;66290.13;4947069;29;20730;-78
2021/01/10 03:09:56;;;;;;;25.07;15.67;;;0.70;99.90;;;-146.47;100.00;66290.13;4961733;29;20735;-77
2021/01/10 03:12:41;;;;;;;25.53;14.20;;;0.70;99.90;;;-146.47;100.00;66290.13;4965648;28;20296;-77
2021/01/10 03:15:29;;;;;;;12.70;9.10;;;0.60;99.90;;;-146.47;100.00;66290.13;4954306;29;20327;-77
2021/01/10 03:18:19;;;;;;;23.70;14.80;;;0.70;99.90;;;-146.47;100.00;66290.13;4956535;29;20217;-77
2021/01/10 03:21:04;;;;;;;26.47;15.53;;;0.60;99.90;;;-146.47;100.00;66290.13;4960426;29;20358;-77
2021/01/10 03:23:49;;;;;;;32.33;16.07;;;0.60;99.90;;;-146.47;100.00;66290.13;4954459;29;20219;-77
2021/01/10 03:26:35;;;;;;;28.17;17.30;;;0.50;99.90;;;-146.47;100.00;66290.13;4954411;29;20234;-77
2021/01/10 03:29:20;;;;;;;33.73;16.83;;;0.50;99.90;;;-146.47;100.00;66290.13;4960059;29;20230;-77
2021/01/10 03:32:07;;;;;;;27.00;17.53;;;0.50;99.90;;;-146.47;100.00;66290.13;4942880;29;20234;-76
2021/01/10 03:34:52;;;;;;;25.57;16.77;;;0.50;99.90;;;-146.47;100.00;66290.13;4952342;29;20245;-77
2021/01/10 03:37:38;;;;;;;27.60;18.97;;;0.50;99.90;;;-146.47;100.00;66290.13;4941097;29;20207;-77
2021/01/10 03:40:23;;;;;;;31.70;18.00;;;0.50;99.90;;;-146.47;100.00;66290.13;4956220;29;20233;-78
2021/01/10 03:43:08;;;;;;;29.83;18.77;;;0.60;99.90;;;-146.47;100.00;66290.13;4957113;29;20213;-76
2021/01/10 03:45:53;;;;;;;30.43;18.37;;;0.60;99.90;;;-146.47;100.00;66290.13;4955722;29;20206;-77
2021/01/10 03:48:39;;;;;;;30.17;19.03;;;0.60;99.90;;;-146.47;100.00;66290.13;4962572;29;20667;-77
2021/01/10 03:51:27;;;;;;;30.87;18.53;;;0.60;99.90;;;-146.47;100.00;66290.13;4962701;29;20214;-77
2021/01/10 03:54:12;;;;;;;31.50;18.87;;;0.70;99.90;;;-146.47;100.00;66290.13;4956586;29;20234;-77
2021/01/10 03:56:57;;;;;;;26.17;16.33;;;0.70;99.90;;;-146.47;100.00;66290.13;4957888;29;20581;-75
2021/01/10 03:59:43;;;;;;;23.20;16.57;;;0.70;99.90;;;-146.47;100.00;66290.13;4963759;29;20221;-76
2021/01/10 04:02:28;;;;;;;24.17;16.87;;;0.60;99.90;;;-146.47;100.00;66290.13;4949496;29;20218;-77
2021/01/10 04:05:14;;;;;;;26.40;16.50;;;0.60;99.90;;;-146.47;100.00;66290.13;4953521;28;20582;-77
2021/01/10 04:07:59;;;;;;;23.13;15.63;;;0.60;99.90;;;-146.47;100.00;66290.13;4953091;29;20267;-78
2021/01/10 04:10:45;;;;;;;23.37;16.17;;;0.60;99.90;;;-146.47;100.00;66290.13;4962464;29;20261;-76
2021/01/10 04:13:30;;;;;;;25.17;16.10;;;0.60;99.90;;;-146.47;100.00;66290.13;4956772;29;20258;-76
2021/01/10 04:16:15;;;;;;;24.77;17.07;;;0.60;99.90;;;-146.47;100.00;66290.13;4954877;29;20226;-76
2021/01/10 04:19:00;;;;;;;28.50;18.10;;;0.60;99.90;;;-146.47;100.00;66290.13;4962487;29;20226;-76
2021/01/10 04:21:48;;;;;;;28.40;17.17;;;0.60;99.90;;;-146.47;100.00;66290.13;4950122;29;20209;-78
2021/01/10 04:24:33;;;;;;;27.73;16.97;;;0.70;99.90;;;-146.47;100.00;66290.13;4963947;29;20239;-77
2021/01/10 04:27:19;;;;;;;28.37;16.00;;;0.70;99.90;;;-146.47;100.00;66290.13;4957931;29;20261;-76
2021/01/10 04:30:06;;;;;;;29.30;18.17;;;0.70;99.90;;;-146.47;100.00;66290.13;4964195;29;20265;-76
2021/01/10 04:32:51;;;;;;;28.67;16.47;;;0.70;99.90;;;-146.47;100.00;66290.13;4964605;29;20214;-78
2021/01/10 04:35:36;;;;;;;27.07;15.70;;;0.70;99.90;;;-146.47;100.00;66290.13;4961409;29;20209;-76
2021/01/10 04:38:22;;;;;;;23.90;15.30;;;0.70;99.90;;;-146.47;100.00;66290.13;4943170;29;20228;-77
2021/01/10 04:41:08;;;;;;;23.43;14.83;;;0.70;99.90;;;-146.47;100.00;66290.13;4965119;29;20275;-77
2021/01/10 04:43:54;;;;;;;25.67;13.87;;;0.70;99.90;;;-146.47;100.00;66290.13;4953448;29;20210;-77
2021/01/10 04:46:42;;;;;;;22.87;14.60;;;0.70;99.90;;;-146.47;100.00;66290.13;4956858;29;20296;-76
2021/01/10 04:49:29;;;;;;;24.83;15.20;;;0.60;99.90;;;-146.47;100.00;66290.13;4954237;29;20287;-77
2021/01/10 04:52:20;;;;;;;26.03;16.07;;;0.60;99.90;;;-146.47;100.00;66290.13;4962745;29;20201;-77
2021/01/10 04:55:09;;;;;;;27.13;16.00;;;0.60;99.90;;;-146.47;100.00;66290.13;4958222;29;20353;-77
2021/01/10 04:58:04;;;;;;;23.70;16.10;;;0.60;99.90;;;-146.47;100.00;66290.13;4965312;28;20215;-75
2021/01/10 05:00:50;;;;;;;25.07;15.73;;;0.60;99.90;;;-146.47;100.00;66290.13;4963341;29;20641;-77
2021/01/10 05:03:37;;;;;;;23.60;15.13;;;0.60;99.90;;;-146.47;100.00;66290.13;4950594;29;20239;-77
2021/01/10 05:06:23;;;;;;;24.53;15.03;;;0.60;99.90;;;-146.47;100.00;66290.13;4952467;29;20214;-76
2021/01/10 05:09:08;;;;;;;22.73;15.13;;;0.60;99.90;;;-146.47;100.00;66290.13;4947636;29;20237;-77
2021/01/10 05:11:55;;;;;;;25.53;15.17;;;0.60;99.90;;;-146.47;100.00;66290.13;4957423;29;20262;-76
2021/01/10 05:14:41;;;;;;;22.70;14.10;;;0.50;99.90;;;-146.47;100.00;66290.13;4961288;29;20225;-76
2021/01/10 05:17:26;;;;;;;22.33;14.40;;;0.60;99.90;;;-146.47;100.00;66290.13;4960243;29;20263;-76
2021/01/10 05:20:13;;;;;;;23.30;14.33;;;0.50;99.90;;;-146.47;100.00;66290.13;4960698;29;20596;-77
2021/01/10 05:22:59;;;;;;;25.43;15.57;;;0.40;99.90;;;-146.47;100.00;66290.13;4958751;29;20253;-77
2021/01/10 05:25:44;;;;;;;23.00;13.87;;;0.40;99.90;;;-146.47;100.00;66290.13;4959398;29;20693;-76
2021/01/10 05:28:31;;;;;;;20.03;14.30;;;0.40;99.90;;;-146.47;100.00;66290.13;4964521;28;20202;-76
2021/01/10 05:31:33;;;;;;;19.70;14.40;;;0.40;99.90;;;-146.47;100.00;66290.13;4964181;28;20268;-76
2021/01/10 05:34:19;;;;;;;21.70;14.83;;;0.30;99.90;;;-146.47;100.00;66290.13;4966158;28;20206;-76
2021/01/10 05:37:23;;;;;;;25.77;15.17;;;0.30;99.90;;;-146.47;100.00;66290.13;4977307;28;20534;-77
2021/01/10 05:40:19;;;;;;;24.43;13.77;;;0.30;99.90;;;-146.47;100.00;66290.13;4949640;29;20223;-76
2021/01/10 05:43:08;;;;;;;23.40;16.17;;;0.30;99.90;;;-146.47;100.00;66290.13;4949470;29;20280;-77
2021/01/10 05:45:54;;;;;;;23.27;15.70;;;0.30;99.90;;;-146.47;100.00;66290.13;4962945;29;20218;-77
2021/01/10 05:48:43;;;;;;;28.07;16.23;;;0.30;99.90;;;-146.47;100.00;66290.13;4959889;29;20215;-77
2021/01/10 05:51:30;;;;;;;33.53;17.07;;;0.30;99.90;;;-146.47;100.00;66290.13;4946746;29;20214;-76
2021/01/10 05:54:41;;;;;;;29.60;18.13;;;0.40;99.90;;;-146.47;100.00;66290.13;4942725;29;20222;-77
2021/01/10 05:57:28;;;;;;;31.90;18.87;;;0.40;99.90;;;-146.47;100.00;66290.13;4966558;28;20217;-77
2021/01/10 06:00:16;;;;;;;37.07;20.47;;;0.40;99.90;;;-146.47;100.00;66290.13;4978334;28;20232;-77
2021/01/10 06:03:02;;;;;;;28.73;19.03;;;0.40;99.90;;;-146.47;100.00;66290.13;4982252;28;20253;-76
2021/01/10 06:05:56;;;;;;;38.17;22.67;;;0.50;99.90;;;-146.47;100.00;66290.13;4983390;28;20213;-77
2021/01/10 06:08:42;;;;;;;38.17;23.70;;;0.50;99.90;;;-146.47;100.00;66290.13;4978615;28;20205;-76
2021/01/10 06:11:28;;;;;;;38.47;23.13;;;0.60;99.90;;;-146.47;100.00;66290.13;4982973;28;20205;-77
2021/01/10 06:14:21;;;;;;;36.40;23.67;;;0.60;99.90;;;-146.47;100.00;66290.13;4991965;28;20229;-77
2021/01/10 06:17:09;;;;;;;35.53;22.77;;;0.70;99.90;;;-146.47;100.00;66290.13;4992241;28;20259;-76
2021/01/10 06:20:02;;;;;;;39.73;23.27;;;0.70;99.90;;;-146.47;100.00;66290.13;4996488;28;20241;-77
2021/01/10 06:22:53;;;;;;;35.70;23.87;;;0.80;99.90;;;-146.47;100.00;66290.13;4989044;28;20201;-76
2021/01/10 06:25:39;;;;;;;37.43;22.70;;;0.90;99.90;;;-146.47;100.00;66290.13;4982542;28;20206;-76
2021/01/10 06:28:28;;;;;;;38.67;23.37;;;0.90;99.90;;;-146.47;100.00;66290.13;4972298;28;20374;-78
2021/01/10 06:31:29;;;;;;;35.00;23.13;;;0.90;99.90;;;-146.47;100.00;66290.13;4981893;28;20210;-76
2021/01/10 06:34:13;;;;;;;33.77;22.33;;;0.90;99.90;;;-146.47;100.00;66290.13;4975160;28;20310;-77
2021/01/10 06:37:01;;;;;;;35.47;22.00;;;1.00;99.90;;;-146.47;100.00;66290.13;4976622;28;20267;-76
2021/01/10 06:39:48;;;;;;;28.67;19.47;;;1.00;99.90;;;-146.47;100.00;66290.13;4977998;28;20228;-76
2021/01/10 06:42:42;;;;;;;33.03;19.57;;;1.00;99.90;;;-146.47;100.00;66290.13;4973650;28;20733;-77
2021/01/10 06:45:35;;;;;;;33.33;19.63;;;1.00;99.90;;;-146.47;100.00;66290.13;4968463;28;20246;-77
2021/01/10 06:48:25;;;;;;;32.10;18.60;;;1.00;99.90;;;-146.47;100.00;66290.13;4974615;28;20241;-77
2021/01/10 06:51:17;;;;;;;35.20;18.77;;;1.00;99.90;;;-146.47;100.00;66290.13;4977647;28;20236;-77
2021/01/10 06:54:05;;;;;;;31.63;19.63;;;1.00;99.90;;;-146.47;100.00;66290.13;4974342;28;20222;-78
2021/01/10 06:56:52;;;;;;;33.13;20.37;;;1.10;99.90;;;-146.47;100.00;66290.13;4968751;28;20205;-77
2021/01/10 07:00:10;;;;;;;31.97;21.07;;;1.10;99.90;;;-146.47;100.00;66290.13;4979562;28;20228;-76
2021/01/10 07:03:10;;;;;;;25.70;15.07;;;1.10;99.90;;;-146.47;100.00;66290.13;4980006;28;20691;-77
2021/01/10 07:06:07;;;;;;;31.10;20.97;;;1.10;99.90;;;-146.47;100.00;66290.13;4950384;29;20284;-77
2021/01/10 07:08:57;;;;;;;35.57;21.87;;;1.20;99.90;;;-146.47;100.00;66290.13;4966033;28;20217;-77
2021/01/10 07:11:44;;;;;;;30.90;19.80;;;1.20;99.90;;;-146.47;100.00;66290.13;4972473;28;20205;-77
2021/01/10 07:14:29;;;;;;;37.63;20.60;;;1.20;99.90;;;-146.47;100.00;66290.13;4970871;28;20224;-76
2021/01/10 07:17:19;;;;;;;33.47;21.50;;;1.30;99.90;;;-146.47;100.00;66290.13;4961666;28;20575;-77
2021/01/10 07:20:06;;;;;;;28.23;18.87;;;1.30;99.90;;;-146.47;100.00;66290.13;4970964;28;20257;-77
2021/01/10 07:22:52;;;;;;;32.00;22.50;;;1.30;99.90;;;-146.47;100.00;66290.13;4970855;28;20334;-77
2021/01/10 07:25:39;;;;;;;34.77;22.00;;;1.30;99.90;;;-146.47;100.00;66290.13;4959170;28;20242;-77
2021/01/10 07:28:39;;;;;;;32.67;21.27;;;1.40;99.90;;;-146.47;100.00;66290.13;4954143;28;20266;-77
2021/01/10 07:31:24;;;;;;;36.50;22.03;;;1.40;99.90;;;-146.47;100.00;66290.13;4971947;28;20213;-77
2021/01/10 07:34:11;;;;;;;37.13;21.90;;;1.40;99.90;;;-146.47;100.00;66290.13;4971978;28;20755;-77
2021/01/10 07:36:59;;;;;;;39.30;22.50;;;1.40;99.90;;;-146.47;100.00;66290.13;4958624;28;20213;-76
2021/01/10 07:39:51;;;;;;;33.13;20.63;;;1.40;99.90;;;-146.47;100.00;66290.13;4972346;28;20320;-77
2021/01/10 07:42:38;;;;;;;33.97;21.17;;;1.40;99.90;;;-146.47;100.00;66290.13;4965053;28;20209;-77
2021/01/10 07:45:39;;;;;;;35.20;22.43;;;1.40;99.90;;;-146.47;100.00;66290.13;4955918;28;20619;-77
2021/01/10 07:48:30;;;;;;;33.13;21.50;;;1.40;99.90;;;-146.47;100.00;66290.13;4969360;28;20220;-77
2021/01/10 07:51:16;;;;;;;26.67;14.97;;;1.40;99.90;;;-146.47;100.00;66290.13;4969311;28;20197;-76
2021/01/10 07:54:01;;;;;;;38.23;22.83;;;1.50;99.90;;;-146.47;100.00;66290.13;4964797;28;20229;-77
2021/01/10 07:57:23;;;;;;;36.83;22.27;;;1.50;99.90;;;-146.47;100.00;66290.13;4966020;28;20226;-76
2021/01/10 08:00:15;;;;;;;32.50;22.83;;;1.50;99.90;;;-146.47;100.00;66290.13;4959292;28;20677;-76
2021/01/10 08:03:04;;;;;;;37.23;22.80;;;1.50;99.90;;;-146.47;100.00;66290.13;4959177;28;20719;-76
2021/01/10 08:05:58;;;;;;;36.83;23.63;;;1.50;99.90;;;-146.47;100.00;66290.13;4967393;28;20691;-76
2021/01/10 08:08:45;;;;;;;39.50;24.23;;;1.50;99.90;;;-146.47;100.00;66290.13;4963251;28;20213;-76
2021/01/10 08:11:32;;;;;;;33.77;23.10;;;1.50;99.90;;;-146.47;100.00;66290.13;4965133;28;20242;-76
2021/01/10 08:14:17;;;;;;;30.80;22.13;;;1.50;99.90;;;-146.47;100.00;66290.13;4965619;28;20221;-77
2021/01/10 08:17:02;;;;;;;35.40;22.83;;;1.60;99.90;;;-146.47;100.00;66290.13;4961138;28;20301;-76
2021/01/10 08:19:48;;;;;;;34.60;23.00;;;1.50;99.90;;;-146.47;100.00;66290.13;4966496;28;20225;-76
2021/01/10 08:22:34;;;;;;;31.63;21.90;;;1.50;99.90;;;-146.47;100.00;66290.13;4965710;28;20671;-76
2021/01/10 08:25:22;;;;;;;37.50;23.87;;;1.50;99.90;;;-146.47;100.00;66290.13;4965949;28;20212;-76
2021/01/10 08:28:08;;;;;;;34.87;23.20;;;1.40;99.90;;;-146.47;100.00;66290.13;4965808;28;20242;-76
2021/01/10 08:31:02;;;;;;;37.93;26.17;;;1.50;99.90;;;-146.47;100.00;66290.13;4964003;28;20289;-76
2021/01/10 08:33:48;;;;;;;37.90;25.97;;;1.50;99.90;;;-146.47;100.00;66290.13;4965042;28;20302;-77
2021/01/10 08:36:37;;;;;;;36.40;25.20;;;1.50;99.90;;;-146.47;100.00;66290.13;4969328;28;20763;-76
2021/01/10 08:39:22;;;;;;;39.13;24.97;;;1.50;99.90;;;-146.47;100.00;66290.13;4969086;28;20233;-76
2021/01/10 08:42:07;;;;;;;42.00;27.10;;;1.50;99.90;;;-146.47;100.00;66290.13;4968440;28;20567;-76
2021/01/10 08:44:52;;;;;;;42.07;26.43;;;1.50;99.90;;;-146.47;100.00;66290.13;4966060;28;20214;-76
2021/01/10 08:47:38;;;;;;;37.83;26.37;;;1.50;99.90;;;-146.47;100.00;66290.13;4967713;28;20209;-77
2021/01/10 08:50:23;;;;;;;38.43;25.87;;;1.50;99.90;;;-146.47;100.00;66290.13;4968573;28;20265;-76
2021/01/10 08:53:09;;;;;;;46.77;28.13;;;1.60;99.90;;;-146.47;100.00;66290.13;4965173;28;20731;-76
2021/01/10 08:55:54;;;;;;;39.10;28.37;;;1.70;99.90;;;-146.47;100.00;66290.13;4957798;28;20205;-77
2021/01/10 08:58:42;;;;;;;43.23;29.10;;;1.60;99.90;;;-146.47;100.00;66290.13;4968412;28;20381;-76
2021/01/10 09:01:27;;;;;;;45.40;28.90;;;1.60;99.90;;;-146.47;100.00;66290.13;4973428;28;20573;-77
2021/01/10 09:04:15;;;;;;;49.87;31.40;;;1.60;99.90;;;-146.47;100.00;66290.13;4970316;28;20209;-76
2021/01/10 09:07:05;;;;;;;53.03;34.83;;;1.60;99.90;;;-146.47;100.00;66290.13;4966507;28;20217;-76
2021/01/10 09:09:57;;;;;;;60.90;37.13;;;1.60;99.90;;;-146.47;100.00;66290.13;4970389;28;20241;-77
2021/01/10 09:12:50;;;;;;;60.97;36.57;;;1.70;99.90;;;-146.47;100.00;66290.13;4970661;28;20593;-76
2021/01/10 09:15:43;;;;;;;53.03;35.20;;;1.70;99.90;;;-146.47;100.00;66290.13;4967918;28;20229;-76
2021/01/10 09:18:35;;;;;;;56.47;35.13;;;1.80;99.90;;;-146.47;100.00;66290.13;4970434;28;20209;-77
2021/01/10 09:21:26;;;;;;;52.73;35.13;;;1.80;99.90;;;-146.47;100.00;66290.13;4970503;28;20207;-76
2021/01/10 09:24:11;;;;;;;57.70;33.30;;;1.80;99.90;;;-146.47;100.00;66290.13;4969012;28;20587;-76
2021/01/10 09:27:09;;;;;;;50.97;34.27;;;1.90;99.90;;;-146.47;100.00;66290.13;4966398;28;20822;-76
2021/01/10 09:30:04;;;;;;;45.07;30.67;;;2.00;99.90;;;-146.47;100.00;66290.13;4969033;28;20229;-77
2021/01/10 09:32:50;;;;;;;50.87;33.27;;;2.00;99.90;;;-146.47;100.00;66290.13;4971276;28;20303;-76
2021/01/10 09:35:41;;;;;;;46.43;32.13;;;2.00;99.90;;;-146.47;100.00;66290.13;4972168;28;20205;-76
2021/01/10 09:38:29;;;;;;;50.57;34.97;;;2.10;99.90;;;-146.47;100.00;66290.13;4971455;28;20233;-76
2021/01/10 09:41:14;;;;;;;55.43;34.60;;;2.10;99.90;;;-146.47;100.00;66290.13;4969456;28;20245;-76
2021/01/10 09:44:01;;;;;;;48.03;33.63;;;2.20;99.90;;;-146.47;100.00;66290.13;4970305;28;20578;-76
2021/01/10 09:46:53;;;;;;;53.97;35.77;;;2.20;99.90;;;-146.47;100.00;66290.13;4968091;28;20205;-76
2021/01/10 09:49:37;;;;;;;51.37;35.27;;;2.30;99.90;;;-146.47;100.00;66290.13;4970488;28;20743;-76
2021/01/10 09:52:22;;;;;;;55.70;37.30;;;2.30;99.90;;;-146.47;100.00;66290.13;4969501;28;20232;-76
2021/01/10 09:55:09;;;;;;;51.80;33.67;;;2.40;99.90;;;-146.47;100.00;66290.13;4970584;28;20237;-76
2021/01/10 09:57:54;;;;;;;53.83;36.57;;;2.40;99.90;;;-146.47;100.00;66290.13;4970292;28;20222;-77
2021/01/10 10:00:56;;;;;;;56.10;36.37;;;2.50;99.90;;;-146.47;100.00;66290.13;4970959;28;20221;-76
2021/01/10 10:03:49;;;;;;;59.33;38.90;;;2.50;99.90;;;-146.47;100.00;66290.13;4972302;28;20209;-77
2021/01/10 10:06:51;;;;;;;58.23;39.63;;;2.60;99.90;;;-146.47;100.00;66290.13;4965715;28;20280;-77
2021/01/10 10:09:51;;;;;;;57.17;39.30;;;2.60;99.90;;;-146.47;100.00;66290.13;4968339;28;20284;-76
2021/01/10 10:12:37;;;;;;;71.57;42.63;;;2.70;99.90;;;-146.47;100.00;66290.13;4971605;28;20293;-76
2021/01/10 10:15:33;;;;;;;62.33;40.80;;;2.70;99.90;;;-146.47;100.00;66290.13;4968192;28;20230;-76
2021/01/10 10:18:21;;;;;;;60.80;42.10;;;2.80;99.90;;;-146.47;100.00;66290.13;4970553;28;20246;-76
2021/01/10 10:21:06;;;;;;;69.50;47.30;;;2.90;99.90;;;-146.47;100.00;66290.13;4971435;28;20241;-76
2021/01/10 10:23:51;;;;;;;65.97;43.00;;;3.00;99.90;;;-146.47;100.00;66290.13;4968631;28;20570;-76
2021/01/10 10:26:41;;;;;;;58.60;38.33;;;3.00;99.90;;;-146.47;100.00;66290.13;4969201;28;20226;-76
2021/01/10 10:29:26;;;;;;;65.67;44.83;;;3.10;99.90;;;-146.47;100.00;66290.13;4970018;28;20308;-76
2021/01/10 10:32:12;;;;;;;63.10;43.17;;;3.10;99.90;;;-146.47;100.00;66290.13;4971655;28;20504;-76
2021/01/10 10:34:58;;;;;;;58.73;43.53;;;3.20;99.90;;;-146.47;100.00;66290.13;4994550;28;20246;-76
2021/01/10 10:37:43;;;;;;;62.70;43.57;;;3.30;99.90;;;-146.47;100.00;66290.13;4963044;28;20602;-76
2021/01/10 10:40:28;;;;;;;59.53;38.70;;;3.40;99.90;;;-146.47;100.00;66290.13;4970059;28;20276;-76
2021/01/10 10:43:13;;;;;;;55.57;40.97;;;3.50;99.90;;;-146.47;100.00;66290.13;4958435;28;20209;-76
2021/01/10 10:45:59;;;;;;;50.93;36.17;;;3.60;99.90;;;-146.47;100.00;66290.13;4967569;28;20237;-76
2021/01/10 10:48:44;;;;;;;56.60;38.50;;;3.60;99.90;;;-146.47;100.00;66290.13;4968023;28;20298;-76
2021/01/10 10:51:31;;;;;;;49.03;37.97;;;3.80;99.90;;;-146.47;100.00;66290.13;4963375;28;20764;-76
2021/01/10 10:54:16;;;;;;;34.40;27.40;;;3.90;99.90;;;-146.47;100.00;66290.13;4960721;28;20337;-76
2021/01/10 10:57:01;;;;;;;34.60;23.70;;;4.00;99.90;;;-146.47;100.00;66290.13;4965100;28;20249;-76
2021/01/10 10:59:46;;;;;;;36.60;27.20;;;4.10;99.90;;;-146.47;100.00;66290.13;4966714;28;20309;-76
2021/01/10 11:02:31;;;;;;;34.23;24.17;;;4.20;99.90;;;-146.47;100.00;66290.13;4966091;28;20256;-76
2021/01/10 11:05:17;;;;;;;35.70;24.07;;;4.30;99.90;;;-146.47;100.00;66290.13;4971268;28;20641;-76
2021/01/10 11:08:03;;;;;;;29.43;22.47;;;4.40;99.90;;;-146.47;100.00;66290.13;4956120;28;20265;-76
2021/01/10 11:10:48;;;;;;;31.10;23.00;;;4.50;99.90;;;-146.47;100.00;66290.13;4970369;28;20807;-76
2021/01/10 11:13:33;;;;;;;29.13;21.77;;;4.60;99.90;;;-146.47;100.00;66290.13;4972844;28;20216;-76
2021/01/10 11:16:19;;;;;;;28.50;22.63;;;4.60;99.90;;;-146.47;100.00;66290.13;4958335;28;20257;-75